sensor_id;sensor_type;location;lat;lon;timestamp;P1;durP1;ratioP1;P2;durP2;ratioP2
3259;SDS011;22469;48.150;14.004;2023-02-16T00:01:56;48.50;;;24.63;;
3259;SDS011;22469;48.150;14.004;2023-02-16T00:04:25;50.00;;;24.67;;
3259;SDS011;22469;48.150;14.004;2023-02-16T00:06:55;52.20;;;23.57;;
3259;SDS011;22469;48.150;14.004;2023-02-16T00:09:23;50.80;;;28.13;;
3259;SDS011;22469;48.150;14.004;2023-02-16T00:11:51;45.17;;;25.17;;
3259;SDS011;22469;48.150;14.004;2023-02-16T00:14:38;49.17;;;22.83;;
3259;SDS011;22469;48.150;14.004;2023-02-16T00:17:05;54.53;;;26.00;;
3259;SDS011;22469;48.150;14.004;2023-02-16T00:19:37;46.20;;;22.90;;
3259;SDS011;22469;48.150;14.004;2023-02-16T00:22:06;49.57;;;26.17;;
3259;SDS011;22469;48.150;14.004;2023-02-16T00:24:33;49.27;;;25.47;;
3259;SDS011;22469;48.150;14.004;2023-02-16T00:27:01;52.83;;;24.27;;
3259;SDS011;22469;48.150;14.004;2023-02-16T00:29:32;43.30;;;22.73;;
3259;SDS011;22469;48.150;14.004;2023-02-16T00:32:03;50.00;;;24.10;;
3259;SDS011;22469;48.150;14.004;2023-02-16T00:34:32;40.60;;;23.93;;
3259;SDS011;22469;48.150;14.004;2023-02-16T00:37:07;46.60;;;24.13;;
3259;SDS011;22469;48.150;14.004;2023-02-16T00:39:37;54.53;;;25.10;;
3259;SDS011;22469;48.150;14.004;2023-02-16T00:42:10;53.73;;;24.63;;
3259;SDS011;22469;48.150;14.004;2023-02-16T00:44:47;57.27;;;25.10;;
3259;SDS011;22469;48.150;14.004;2023-02-16T00:47:51;65.67;;;24.27;;
3259;SDS011;22469;48.150;14.004;2023-02-16T00:52:49;49.23;;;26.47;;
3259;SDS011;22469;48.150;14.004;2023-02-16T00:55:18;50.50;;;24.00;;
3259;SDS011;22469;48.150;14.004;2023-02-16T01:00:34;49.17;;;25.87;;
3259;SDS011;22469;48.150;14.004;2023-02-16T01:03:06;45.37;;;24.27;;
3259;SDS011;22469;48.150;14.004;2023-02-16T01:05:42;55.57;;;25.50;;
3259;SDS011;22469;48.150;14.004;2023-02-16T01:08:14;54.03;;;26.50;;
3259;SDS011;22469;48.150;14.004;2023-02-16T01:11:01;56.50;;;25.50;;
3259;SDS011;22469;48.150;14.004;2023-02-16T01:13:46;50.87;;;24.67;;
3259;SDS011;22469;48.150;14.004;2023-02-16T01:18:47;50.70;;;25.67;;
3259;SDS011;22469;48.150;14.004;2023-02-16T01:21:15;51.30;;;27.60;;
3259;SDS011;22469;48.150;14.004;2023-02-16T01:23:42;40.43;;;25.60;;
3259;SDS011;22469;48.150;14.004;2023-02-16T01:26:11;53.60;;;27.10;;
3259;SDS011;22469;48.150;14.004;2023-02-16T01:28:42;51.60;;;27.60;;
3259;SDS011;22469;48.150;14.004;2023-02-16T01:31:10;43.20;;;22.33;;
3259;SDS011;22469;48.150;14.004;2023-02-16T01:33:39;50.43;;;24.80;;
3259;SDS011;22469;48.150;14.004;2023-02-16T01:36:17;46.45;;;27.30;;
3259;SDS011;22469;48.150;14.004;2023-02-16T01:38:52;49.27;;;25.47;;
3259;SDS011;22469;48.150;14.004;2023-02-16T01:44:47;61.37;;;26.83;;
3259;SDS011;22469;48.150;14.004;2023-02-16T01:47:32;52.77;;;26.47;;
3259;SDS011;22469;48.150;14.004;2023-02-16T01:50:06;59.37;;;25.00;;
3259;SDS011;22469;48.150;14.004;2023-02-16T01:53:05;42.03;;;23.47;;
3259;SDS011;22469;48.150;14.004;2023-02-16T01:55:46;46.30;;;22.77;;
3259;SDS011;22469;48.150;14.004;2023-02-16T01:58:28;68.27;;;27.93;;
3259;SDS011;22469;48.150;14.004;2023-02-16T02:04:10;44.17;;;23.10;;
3259;SDS011;22469;48.150;14.004;2023-02-16T02:07:00;53.53;;;25.37;;
3259;SDS011;22469;48.150;14.004;2023-02-16T02:12:15;47.80;;;21.50;;
3259;SDS011;22469;48.150;14.004;2023-02-16T02:14:54;43.53;;;22.83;;
3259;SDS011;22469;48.150;14.004;2023-02-16T02:17:21;57.63;;;25.17;;
3259;SDS011;22469;48.150;14.004;2023-02-16T02:19:53;61.83;;;22.93;;
3259;SDS011;22469;48.150;14.004;2023-02-16T02:29:07;65.47;;;21.83;;
3259;SDS011;22469;48.150;14.004;2023-02-16T02:37:21;44.30;;;24.60;;
3259;SDS011;22469;48.150;14.004;2023-02-16T02:46:16;56.87;;;22.00;;
3259;SDS011;22469;48.150;14.004;2023-02-16T02:48:51;63.77;;;22.13;;
3259;SDS011;22469;48.150;14.004;2023-02-16T02:51:18;64.27;;;22.80;;
3259;SDS011;22469;48.150;14.004;2023-02-16T03:05:57;57.83;;;24.67;;
3259;SDS011;22469;48.150;14.004;2023-02-16T03:09:13;48.83;;;21.00;;
3259;SDS011;22469;48.150;14.004;2023-02-16T03:11:41;39.87;;;21.83;;
3259;SDS011;22469;48.150;14.004;2023-02-16T03:14:32;49.83;;;22.53;;
3259;SDS011;22469;48.150;14.004;2023-02-16T03:17:06;62.97;;;23.57;;
3259;SDS011;22469;48.150;14.004;2023-02-16T03:19:55;67.07;;;23.17;;
3259;SDS011;22469;48.150;14.004;2023-02-16T03:22:44;54.53;;;23.10;;
3259;SDS011;22469;48.150;14.004;2023-02-16T03:25:31;68.10;;;23.90;;
3259;SDS011;22469;48.150;14.004;2023-02-16T03:28:22;47.20;;;22.77;;
3259;SDS011;22469;48.150;14.004;2023-02-16T03:31:14;41.33;;;20.40;;
3259;SDS011;22469;48.150;14.004;2023-02-16T03:33:46;51.93;;;21.83;;
3259;SDS011;22469;48.150;14.004;2023-02-16T03:36:23;42.00;;;21.10;;
3259;SDS011;22469;48.150;14.004;2023-02-16T03:38:55;45.30;;;21.90;;
3259;SDS011;22469;48.150;14.004;2023-02-16T03:41:24;47.93;;;23.00;;
3259;SDS011;22469;48.150;14.004;2023-02-16T03:43:52;51.33;;;24.67;;
3259;SDS011;22469;48.150;14.004;2023-02-16T03:46:19;50.77;;;22.20;;
3259;SDS011;22469;48.150;14.004;2023-02-16T03:48:46;61.47;;;24.77;;
3259;SDS011;22469;48.150;14.004;2023-02-16T03:51:13;54.33;;;23.17;;
3259;SDS011;22469;48.150;14.004;2023-02-16T03:53:40;50.53;;;25.90;;
3259;SDS011;22469;48.150;14.004;2023-02-16T03:56:07;44.83;;;21.07;;
3259;SDS011;22469;48.150;14.004;2023-02-16T03:58:34;44.60;;;23.10;;
3259;SDS011;22469;48.150;14.004;2023-02-16T04:01:01;54.07;;;22.77;;
3259;SDS011;22469;48.150;14.004;2023-02-16T04:03:28;52.67;;;25.00;;
3259;SDS011;22469;48.150;14.004;2023-02-16T04:05:55;48.60;;;24.40;;
3259;SDS011;22469;48.150;14.004;2023-02-16T04:08:22;47.70;;;22.13;;
3259;SDS011;22469;48.150;14.004;2023-02-16T04:10:49;45.03;;;23.37;;
3259;SDS011;22469;48.150;14.004;2023-02-16T04:13:16;55.80;;;23.27;;
3259;SDS011;22469;48.150;14.004;2023-02-16T04:15:43;71.60;;;24.77;;
3259;SDS011;22469;48.150;14.004;2023-02-16T04:18:11;50.30;;;23.37;;
3259;SDS011;22469;48.150;14.004;2023-02-16T04:20:38;46.70;;;24.20;;
3259;SDS011;22469;48.150;14.004;2023-02-16T04:23:05;47.60;;;23.37;;
3259;SDS011;22469;48.150;14.004;2023-02-16T04:25:33;47.63;;;21.63;;
3259;SDS011;22469;48.150;14.004;2023-02-16T04:28:02;43.23;;;23.07;;
3259;SDS011;22469;48.150;14.004;2023-02-16T04:30:29;46.77;;;24.20;;
3259;SDS011;22469;48.150;14.004;2023-02-16T04:32:57;58.43;;;23.77;;
3259;SDS011;22469;48.150;14.004;2023-02-16T04:35:25;42.57;;;20.77;;
3259;SDS011;22469;48.150;14.004;2023-02-16T04:37:52;42.50;;;21.40;;
3259;SDS011;22469;48.150;14.004;2023-02-16T04:40:19;45.60;;;22.20;;
3259;SDS011;22469;48.150;14.004;2023-02-16T04:42:46;39.77;;;21.13;;
3259;SDS011;22469;48.150;14.004;2023-02-16T04:45:13;45.87;;;21.73;;
3259;SDS011;22469;48.150;14.004;2023-02-16T04:47:40;40.20;;;20.57;;
3259;SDS011;22469;48.150;14.004;2023-02-16T04:50:07;46.73;;;20.20;;
3259;SDS011;22469;48.150;14.004;2023-02-16T04:52:36;33.30;;;18.80;;
3259;SDS011;22469;48.150;14.004;2023-02-16T04:55:04;44.60;;;20.47;;
3259;SDS011;22469;48.150;14.004;2023-02-16T04:57:35;46.33;;;20.27;;
3259;SDS011;22469;48.150;14.004;2023-02-16T05:00:05;45.90;;;22.87;;
3259;SDS011;22469;48.150;14.004;2023-02-16T05:02:35;42.83;;;22.00;;
3259;SDS011;22469;48.150;14.004;2023-02-16T05:05:02;43.57;;;22.27;;
3259;SDS011;22469;48.150;14.004;2023-02-16T05:07:29;43.37;;;23.10;;
3259;SDS011;22469;48.150;14.004;2023-02-16T05:09:56;46.03;;;21.90;;
3259;SDS011;22469;48.150;14.004;2023-02-16T05:12:23;43.27;;;20.43;;
3259;SDS011;22469;48.150;14.004;2023-02-16T05:15:08;41.30;;;20.27;;
3259;SDS011;22469;48.150;14.004;2023-02-16T05:17:35;47.47;;;22.17;;
3259;SDS011;22469;48.150;14.004;2023-02-16T05:20:02;46.77;;;23.40;;
3259;SDS011;22469;48.150;14.004;2023-02-16T05:22:30;37.37;;;20.20;;
3259;SDS011;22469;48.150;14.004;2023-02-16T05:25:01;41.47;;;21.23;;
3259;SDS011;22469;48.150;14.004;2023-02-16T05:27:28;45.73;;;22.90;;
3259;SDS011;22469;48.150;14.004;2023-02-16T05:29:56;46.77;;;23.13;;
3259;SDS011;22469;48.150;14.004;2023-02-16T05:32:24;49.10;;;20.30;;
3259;SDS011;22469;48.150;14.004;2023-02-16T05:34:52;43.43;;;21.20;;
3259;SDS011;22469;48.150;14.004;2023-02-16T05:37:19;40.27;;;21.30;;
3259;SDS011;22469;48.150;14.004;2023-02-16T05:39:46;45.80;;;23.50;;
3259;SDS011;22469;48.150;14.004;2023-02-16T05:42:13;48.20;;;22.97;;
3259;SDS011;22469;48.150;14.004;2023-02-16T05:44:40;43.83;;;21.07;;
3259;SDS011;22469;48.150;14.004;2023-02-16T05:47:07;44.67;;;23.40;;
3259;SDS011;22469;48.150;14.004;2023-02-16T05:49:34;55.80;;;24.90;;
3259;SDS011;22469;48.150;14.004;2023-02-16T05:52:01;61.53;;;21.73;;
3259;SDS011;22469;48.150;14.004;2023-02-16T05:54:28;65.77;;;22.53;;
3259;SDS011;22469;48.150;14.004;2023-02-16T05:56:55;59.17;;;21.23;;
3259;SDS011;22469;48.150;14.004;2023-02-16T05:59:22;51.43;;;22.10;;
3259;SDS011;22469;48.150;14.004;2023-02-16T06:01:49;93.20;;;26.17;;
3259;SDS011;22469;48.150;14.004;2023-02-16T06:04:18;48.50;;;21.93;;
3259;SDS011;22469;48.150;14.004;2023-02-16T06:06:46;45.80;;;21.30;;
3259;SDS011;22469;48.150;14.004;2023-02-16T06:09:14;44.10;;;20.87;;
3259;SDS011;22469;48.150;14.004;2023-02-16T06:11:41;43.17;;;20.87;;
3259;SDS011;22469;48.150;14.004;2023-02-16T06:14:10;51.73;;;24.00;;
3259;SDS011;22469;48.150;14.004;2023-02-16T06:16:41;50.73;;;22.17;;
3259;SDS011;22469;48.150;14.004;2023-02-16T06:19:10;40.40;;;22.30;;
3259;SDS011;22469;48.150;14.004;2023-02-16T06:21:37;44.60;;;22.83;;
3259;SDS011;22469;48.150;14.004;2023-02-16T06:24:07;47.10;;;23.00;;
3259;SDS011;22469;48.150;14.004;2023-02-16T06:26:37;49.20;;;24.10;;
3259;SDS011;22469;48.150;14.004;2023-02-16T06:29:04;47.37;;;21.80;;
3259;SDS011;22469;48.150;14.004;2023-02-16T06:31:32;43.80;;;22.53;;
3259;SDS011;22469;48.150;14.004;2023-02-16T06:34:02;32.80;;;18.60;;
3259;SDS011;22469;48.150;14.004;2023-02-16T06:36:30;35.50;;;19.10;;
3259;SDS011;22469;48.150;14.004;2023-02-16T06:38:58;45.17;;;21.83;;
3259;SDS011;22469;48.150;14.004;2023-02-16T06:41:25;45.70;;;23.03;;
3259;SDS011;22469;48.150;14.004;2023-02-16T06:44:02;42.53;;;21.73;;
3259;SDS011;22469;48.150;14.004;2023-02-16T06:46:41;36.57;;;19.70;;
3259;SDS011;22469;48.150;14.004;2023-02-16T06:49:11;39.30;;;20.60;;
3259;SDS011;22469;48.150;14.004;2023-02-16T06:51:43;37.93;;;20.83;;
3259;SDS011;22469;48.150;14.004;2023-02-16T06:54:11;37.50;;;20.90;;
3259;SDS011;22469;48.150;14.004;2023-02-16T06:56:39;39.00;;;20.60;;
3259;SDS011;22469;48.150;14.004;2023-02-16T06:59:07;38.70;;;21.83;;
3259;SDS011;22469;48.150;14.004;2023-02-16T07:01:34;48.30;;;25.30;;
3259;SDS011;22469;48.150;14.004;2023-02-16T07:04:01;43.27;;;23.17;;
3259;SDS011;22469;48.150;14.004;2023-02-16T07:06:28;59.50;;;26.70;;
3259;SDS011;22469;48.150;14.004;2023-02-16T07:08:55;54.37;;;27.23;;
3259;SDS011;22469;48.150;14.004;2023-02-16T07:11:22;62.60;;;33.10;;
3259;SDS011;22469;48.150;14.004;2023-02-16T07:13:49;55.67;;;28.73;;
3259;SDS011;22469;48.150;14.004;2023-02-16T07:16:16;37.67;;;24.70;;
3259;SDS011;22469;48.150;14.004;2023-02-16T07:18:44;35.80;;;20.83;;
3259;SDS011;22469;48.150;14.004;2023-02-16T07:21:12;37.83;;;20.30;;
3259;SDS011;22469;48.150;14.004;2023-02-16T07:23:39;42.53;;;23.33;;
3259;SDS011;22469;48.150;14.004;2023-02-16T07:26:06;43.80;;;25.87;;
3259;SDS011;22469;48.150;14.004;2023-02-16T07:28:34;42.23;;;23.53;;
3259;SDS011;22469;48.150;14.004;2023-02-16T07:31:05;46.53;;;23.50;;
3259;SDS011;22469;48.150;14.004;2023-02-16T07:33:38;41.13;;;22.50;;
3259;SDS011;22469;48.150;14.004;2023-02-16T07:36:06;43.27;;;21.30;;
3259;SDS011;22469;48.150;14.004;2023-02-16T07:38:34;38.77;;;21.40;;
3259;SDS011;22469;48.150;14.004;2023-02-16T07:41:01;46.30;;;23.57;;
3259;SDS011;22469;48.150;14.004;2023-02-16T07:43:33;42.17;;;21.40;;
3259;SDS011;22469;48.150;14.004;2023-02-16T07:46:01;39.67;;;22.93;;
3259;SDS011;22469;48.150;14.004;2023-02-16T07:48:28;39.83;;;22.33;;
3259;SDS011;22469;48.150;14.004;2023-02-16T07:50:55;37.47;;;21.13;;
3259;SDS011;22469;48.150;14.004;2023-02-16T07:53:21;36.57;;;21.03;;
3259;SDS011;22469;48.150;14.004;2023-02-16T07:55:49;40.87;;;20.97;;
3259;SDS011;22469;48.150;14.004;2023-02-16T07:58:16;43.60;;;22.20;;
3259;SDS011;22469;48.150;14.004;2023-02-16T08:00:53;34.43;;;20.10;;
3259;SDS011;22469;48.150;14.004;2023-02-16T08:03:33;33.63;;;20.20;;
3259;SDS011;22469;48.150;14.004;2023-02-16T08:06:00;37.43;;;19.83;;
3259;SDS011;22469;48.150;14.004;2023-02-16T08:08:29;39.90;;;19.60;;
3259;SDS011;22469;48.150;14.004;2023-02-16T08:10:57;28.93;;;19.23;;
3259;SDS011;22469;48.150;14.004;2023-02-16T08:13:24;37.43;;;21.33;;
3259;SDS011;22469;48.150;14.004;2023-02-16T08:15:51;33.90;;;20.10;;
3259;SDS011;22469;48.150;14.004;2023-02-16T08:18:18;37.23;;;21.87;;
3259;SDS011;22469;48.150;14.004;2023-02-16T08:20:45;35.13;;;20.07;;
3259;SDS011;22469;48.150;14.004;2023-02-16T08:23:29;37.53;;;21.20;;
3259;SDS011;22469;48.150;14.004;2023-02-16T08:25:57;36.77;;;22.53;;
3259;SDS011;22469;48.150;14.004;2023-02-16T08:28:24;40.33;;;22.03;;
3259;SDS011;22469;48.150;14.004;2023-02-16T08:30:54;35.77;;;20.73;;
3259;SDS011;22469;48.150;14.004;2023-02-16T08:33:22;39.20;;;21.30;;
3259;SDS011;22469;48.150;14.004;2023-02-16T08:35:49;34.57;;;20.93;;
3259;SDS011;22469;48.150;14.004;2023-02-16T08:38:16;33.20;;;19.93;;
3259;SDS011;22469;48.150;14.004;2023-02-16T08:40:46;32.40;;;19.17;;
3259;SDS011;22469;48.150;14.004;2023-02-16T08:43:15;34.97;;;19.60;;
3259;SDS011;22469;48.150;14.004;2023-02-16T08:45:45;30.17;;;18.70;;
3259;SDS011;22469;48.150;14.004;2023-02-16T08:48:13;28.90;;;20.10;;
3259;SDS011;22469;48.150;14.004;2023-02-16T08:50:45;33.90;;;20.67;;
3259;SDS011;22469;48.150;14.004;2023-02-16T08:53:23;33.90;;;19.77;;
3259;SDS011;22469;48.150;14.004;2023-02-16T08:55:53;36.27;;;20.47;;
3259;SDS011;22469;48.150;14.004;2023-02-16T08:58:22;33.30;;;21.17;;
3259;SDS011;22469;48.150;14.004;2023-02-16T09:00:50;38.13;;;21.70;;
3259;SDS011;22469;48.150;14.004;2023-02-16T09:03:17;35.07;;;20.50;;
3259;SDS011;22469;48.150;14.004;2023-02-16T09:05:45;35.13;;;21.57;;
3259;SDS011;22469;48.150;14.004;2023-02-16T09:08:13;32.77;;;21.03;;
3259;SDS011;22469;48.150;14.004;2023-02-16T09:10:41;30.57;;;19.77;;
3259;SDS011;22469;48.150;14.004;2023-02-16T09:13:09;36.70;;;21.33;;
3259;SDS011;22469;48.150;14.004;2023-02-16T09:15:41;34.57;;;20.63;;
3259;SDS011;22469;48.150;14.004;2023-02-16T09:18:09;33.03;;;21.00;;
3259;SDS011;22469;48.150;14.004;2023-02-16T09:20:38;29.63;;;20.37;;
3259;SDS011;22469;48.150;14.004;2023-02-16T09:23:11;32.80;;;21.67;;
3259;SDS011;22469;48.150;14.004;2023-02-16T09:25:38;27.83;;;18.80;;
3259;SDS011;22469;48.150;14.004;2023-02-16T09:28:07;31.17;;;20.70;;
3259;SDS011;22469;48.150;14.004;2023-02-16T09:30:36;33.50;;;20.40;;
3259;SDS011;22469;48.150;14.004;2023-02-16T09:33:04;27.17;;;18.07;;
3259;SDS011;22469;48.150;14.004;2023-02-16T09:35:31;28.60;;;18.63;;
3259;SDS011;22469;48.150;14.004;2023-02-16T09:37:59;30.63;;;18.50;;
3259;SDS011;22469;48.150;14.004;2023-02-16T09:40:26;30.47;;;19.77;;
3259;SDS011;22469;48.150;14.004;2023-02-16T09:45:42;27.23;;;18.50;;
3259;SDS011;22469;48.150;14.004;2023-02-16T09:48:18;30.13;;;19.67;;
3259;SDS011;22469;48.150;14.004;2023-02-16T09:51:02;33.07;;;19.50;;
3259;SDS011;22469;48.150;14.004;2023-02-16T09:53:38;27.73;;;19.80;;
3259;SDS011;22469;48.150;14.004;2023-02-16T09:56:14;28.13;;;19.53;;
3259;SDS011;22469;48.150;14.004;2023-02-16T09:59:20;26.47;;;18.30;;
3259;SDS011;22469;48.150;14.004;2023-02-16T10:02:21;30.67;;;18.90;;
3259;SDS011;22469;48.150;14.004;2023-02-16T10:05:25;28.13;;;17.50;;
3259;SDS011;22469;48.150;14.004;2023-02-16T10:08:10;26.20;;;19.87;;
3259;SDS011;22469;48.150;14.004;2023-02-16T10:11:56;28.27;;;19.80;;
3259;SDS011;22469;48.150;14.004;2023-02-16T10:22:38;23.33;;;17.63;;
3259;SDS011;22469;48.150;14.004;2023-02-16T10:28:31;25.90;;;16.80;;
3259;SDS011;22469;48.150;14.004;2023-02-16T10:31:35;24.40;;;18.63;;
3259;SDS011;22469;48.150;14.004;2023-02-16T10:43:51;25.60;;;17.73;;
3259;SDS011;22469;48.150;14.004;2023-02-16T10:46:24;27.57;;;18.00;;
3259;SDS011;22469;48.150;14.004;2023-02-16T10:48:58;27.73;;;19.90;;
3259;SDS011;22469;48.150;14.004;2023-02-16T10:51:30;22.87;;;17.80;;
3259;SDS011;22469;48.150;14.004;2023-02-16T10:54:07;26.10;;;17.87;;
3259;SDS011;22469;48.150;14.004;2023-02-16T10:56:45;27.30;;;17.83;;
3259;SDS011;22469;48.150;14.004;2023-02-16T10:59:39;24.70;;;18.30;;
3259;SDS011;22469;48.150;14.004;2023-02-16T11:02:19;24.23;;;16.83;;
3259;SDS011;22469;48.150;14.004;2023-02-16T11:07:59;28.10;;;17.10;;
3259;SDS011;22469;48.150;14.004;2023-02-16T11:13:34;26.87;;;16.47;;
3259;SDS011;22469;48.150;14.004;2023-02-16T11:16:17;25.07;;;18.10;;
3259;SDS011;22469;48.150;14.004;2023-02-16T11:18:54;24.83;;;18.77;;
3259;SDS011;22469;48.150;14.004;2023-02-16T11:24:27;27.77;;;18.17;;
3259;SDS011;22469;48.150;14.004;2023-02-16T11:27:01;34.17;;;21.63;;
3259;SDS011;22469;48.150;14.004;2023-02-16T11:29:46;31.17;;;20.40;;
3259;SDS011;22469;48.150;14.004;2023-02-16T11:32:14;28.83;;;20.30;;
3259;SDS011;22469;48.150;14.004;2023-02-16T11:39:51;30.43;;;18.60;;
3259;SDS011;22469;48.150;14.004;2023-02-16T11:45:00;29.90;;;20.70;;
3259;SDS011;22469;48.150;14.004;2023-02-16T11:47:31;29.20;;;19.70;;
3259;SDS011;22469;48.150;14.004;2023-02-16T11:55:41;36.77;;;19.70;;
3259;SDS011;22469;48.150;14.004;2023-02-16T11:58:15;28.53;;;19.53;;
3259;SDS011;22469;48.150;14.004;2023-02-16T12:00:54;30.60;;;19.70;;
3259;SDS011;22469;48.150;14.004;2023-02-16T12:03:58;28.07;;;18.80;;
3259;SDS011;22469;48.150;14.004;2023-02-16T12:12:35;30.67;;;22.13;;
3259;SDS011;22469;48.150;14.004;2023-02-16T12:21:47;29.07;;;19.93;;
3259;SDS011;22469;48.150;14.004;2023-02-16T12:28:10;25.57;;;17.37;;
3259;SDS011;22469;48.150;14.004;2023-02-16T12:33:52;32.80;;;21.17;;
3259;SDS011;22469;48.150;14.004;2023-02-16T12:36:49;32.20;;;20.60;;
3259;SDS011;22469;48.150;14.004;2023-02-16T12:45:35;28.10;;;20.40;;
3259;SDS011;22469;48.150;14.004;2023-02-16T12:51:18;31.00;;;19.50;;
3259;SDS011;22469;48.150;14.004;2023-02-16T12:56:41;26.57;;;19.73;;
3259;SDS011;22469;48.150;14.004;2023-02-16T13:02:23;27.70;;;20.97;;
3259;SDS011;22469;48.150;14.004;2023-02-16T13:05:03;31.53;;;21.00;;
3259;SDS011;22469;48.150;14.004;2023-02-16T13:08:01;32.33;;;21.73;;
3259;SDS011;22469;48.150;14.004;2023-02-16T13:13:32;26.10;;;19.33;;
3259;SDS011;22469;48.150;14.004;2023-02-16T13:19:03;28.30;;;20.90;;
3259;SDS011;22469;48.150;14.004;2023-02-16T13:30:22;27.87;;;20.67;;
3259;SDS011;22469;48.150;14.004;2023-02-16T13:36:16;30.27;;;21.83;;
3259;SDS011;22469;48.150;14.004;2023-02-16T13:39:16;30.70;;;20.10;;
3259;SDS011;22469;48.150;14.004;2023-02-16T13:44:46;32.37;;;21.73;;
3259;SDS011;22469;48.150;14.004;2023-02-16T13:47:25;27.03;;;20.33;;
3259;SDS011;22469;48.150;14.004;2023-02-16T13:50:02;28.23;;;20.67;;
3259;SDS011;22469;48.150;14.004;2023-02-16T13:52:46;29.30;;;20.10;;
3259;SDS011;22469;48.150;14.004;2023-02-16T13:55:32;23.50;;;20.00;;
3259;SDS011;22469;48.150;14.004;2023-02-16T14:00:48;25.30;;;20.03;;
3259;SDS011;22469;48.150;14.004;2023-02-16T14:05:45;33.83;;;20.20;;
3259;SDS011;22469;48.150;14.004;2023-02-16T14:08:21;26.87;;;20.83;;
3259;SDS011;22469;48.150;14.004;2023-02-16T14:10:55;25.87;;;19.33;;
3259;SDS011;22469;48.150;14.004;2023-02-16T14:16:23;31.60;;;20.60;;
3259;SDS011;22469;48.150;14.004;2023-02-16T14:18:56;23.60;;;19.10;;
3259;SDS011;22469;48.150;14.004;2023-02-16T14:24:12;25.30;;;20.27;;
3259;SDS011;22469;48.150;14.004;2023-02-16T14:26:55;28.13;;;21.10;;
3259;SDS011;22469;48.150;14.004;2023-02-16T14:32:31;25.50;;;21.00;;
3259;SDS011;22469;48.150;14.004;2023-02-16T14:35:12;26.50;;;20.20;;
3259;SDS011;22469;48.150;14.004;2023-02-16T14:38:06;27.97;;;20.07;;
3259;SDS011;22469;48.150;14.004;2023-02-16T14:40:51;27.60;;;20.03;;
3259;SDS011;22469;48.150;14.004;2023-02-16T14:45:58;28.00;;;22.13;;
3259;SDS011;22469;48.150;14.004;2023-02-16T14:52:45;27.07;;;21.17;;
3259;SDS011;22469;48.150;14.004;2023-02-16T14:55:32;28.23;;;22.13;;
3259;SDS011;22469;48.150;14.004;2023-02-16T15:00:47;28.00;;;20.70;;
3259;SDS011;22469;48.150;14.004;2023-02-16T15:03:19;27.67;;;21.07;;
3259;SDS011;22469;48.150;14.004;2023-02-16T15:05:56;27.80;;;21.20;;
3259;SDS011;22469;48.150;14.004;2023-02-16T15:08:28;25.77;;;20.27;;
3259;SDS011;22469;48.150;14.004;2023-02-16T15:11:13;25.60;;;19.30;;
3259;SDS011;22469;48.150;14.004;2023-02-16T15:14:22;26.87;;;21.47;;
3259;SDS011;22469;48.150;14.004;2023-02-16T15:16:51;27.23;;;20.37;;
3259;SDS011;22469;48.150;14.004;2023-02-16T15:19:22;29.07;;;21.17;;
3259;SDS011;22469;48.150;14.004;2023-02-16T15:24:54;26.90;;;21.37;;
3259;SDS011;22469;48.150;14.004;2023-02-16T15:27:28;31.00;;;21.20;;
3259;SDS011;22469;48.150;14.004;2023-02-16T15:30:03;27.30;;;21.37;;
3259;SDS011;22469;48.150;14.004;2023-02-16T15:32:52;27.27;;;19.67;;
3259;SDS011;22469;48.150;14.004;2023-02-16T15:35:25;28.70;;;22.07;;
3259;SDS011;22469;48.150;14.004;2023-02-16T15:40:38;29.33;;;20.70;;
3259;SDS011;22469;48.150;14.004;2023-02-16T15:45:58;24.10;;;21.20;;
3259;SDS011;22469;48.150;14.004;2023-02-16T15:48:33;32.30;;;20.50;;
3259;SDS011;22469;48.150;14.004;2023-02-16T15:51:08;24.83;;;19.77;;
3259;SDS011;22469;48.150;14.004;2023-02-16T15:56:32;27.03;;;21.13;;
3259;SDS011;22469;48.150;14.004;2023-02-16T15:59:27;31.53;;;23.53;;
3259;SDS011;22469;48.150;14.004;2023-02-16T16:04:40;31.77;;;25.00;;
3259;SDS011;22469;48.150;14.004;2023-02-16T16:07:26;28.73;;;23.87;;
3259;SDS011;22469;48.150;14.004;2023-02-16T16:09:58;28.40;;;22.20;;
3259;SDS011;22469;48.150;14.004;2023-02-16T16:12:26;30.87;;;24.27;;
3259;SDS011;22469;48.150;14.004;2023-02-16T16:14:55;28.60;;;23.13;;
3259;SDS011;22469;48.150;14.004;2023-02-16T16:17:32;28.50;;;22.50;;
3259;SDS011;22469;48.150;14.004;2023-02-16T16:25:43;24.77;;;19.87;;
3259;SDS011;22469;48.150;14.004;2023-02-16T16:28:34;28.87;;;20.83;;
3259;SDS011;22469;48.150;14.004;2023-02-16T16:31:07;37.00;;;22.87;;
3259;SDS011;22469;48.150;14.004;2023-02-16T16:33:53;27.13;;;21.37;;
3259;SDS011;22469;48.150;14.004;2023-02-16T16:36:54;29.23;;;22.40;;
3259;SDS011;22469;48.150;14.004;2023-02-16T16:39:25;28.27;;;20.70;;
3259;SDS011;22469;48.150;14.004;2023-02-16T16:44:42;27.73;;;19.83;;
3259;SDS011;22469;48.150;14.004;2023-02-16T16:47:30;27.60;;;22.37;;
3259;SDS011;22469;48.150;14.004;2023-02-16T16:58:04;29.70;;;23.07;;
3259;SDS011;22469;48.150;14.004;2023-02-16T17:00:36;31.87;;;23.70;;
3259;SDS011;22469;48.150;14.004;2023-02-16T17:03:06;28.93;;;23.37;;
3259;SDS011;22469;48.150;14.004;2023-02-16T17:05:37;33.23;;;24.40;;
3259;SDS011;22469;48.150;14.004;2023-02-16T17:08:05;30.60;;;23.23;;
3259;SDS011;22469;48.150;14.004;2023-02-16T17:10:34;33.60;;;24.70;;
3259;SDS011;22469;48.150;14.004;2023-02-16T17:13:03;35.40;;;23.33;;
3259;SDS011;22469;48.150;14.004;2023-02-16T17:15:36;35.40;;;24.73;;
3259;SDS011;22469;48.150;14.004;2023-02-16T17:18:15;35.83;;;24.23;;
3259;SDS011;22469;48.150;14.004;2023-02-16T17:20:44;32.40;;;24.00;;
3259;SDS011;22469;48.150;14.004;2023-02-16T17:23:13;36.27;;;23.13;;
3259;SDS011;22469;48.150;14.004;2023-02-16T17:25:43;35.87;;;24.90;;
3259;SDS011;22469;48.150;14.004;2023-02-16T17:28:11;35.67;;;25.73;;
3259;SDS011;22469;48.150;14.004;2023-02-16T17:30:41;39.73;;;27.07;;
3259;SDS011;22469;48.150;14.004;2023-02-16T17:33:09;36.87;;;27.40;;
3259;SDS011;22469;48.150;14.004;2023-02-16T17:35:37;34.83;;;27.80;;
3259;SDS011;22469;48.150;14.004;2023-02-16T17:38:08;36.23;;;26.13;;
3259;SDS011;22469;48.150;14.004;2023-02-16T17:40:45;38.23;;;26.93;;
3259;SDS011;22469;48.150;14.004;2023-02-16T17:43:15;31.40;;;24.67;;
3259;SDS011;22469;48.150;14.004;2023-02-16T17:45:44;37.07;;;25.87;;
3259;SDS011;22469;48.150;14.004;2023-02-16T17:48:23;34.40;;;28.13;;
3259;SDS011;22469;48.150;14.004;2023-02-16T17:50:56;36.77;;;26.57;;
3259;SDS011;22469;48.150;14.004;2023-02-16T17:53:24;40.00;;;27.00;;
3259;SDS011;22469;48.150;14.004;2023-02-16T17:55:54;37.30;;;27.47;;
3259;SDS011;22469;48.150;14.004;2023-02-16T17:58:23;38.40;;;26.63;;
3259;SDS011;22469;48.150;14.004;2023-02-16T18:00:51;35.77;;;26.53;;
3259;SDS011;22469;48.150;14.004;2023-02-16T18:03:18;42.40;;;29.87;;
3259;SDS011;22469;48.150;14.004;2023-02-16T18:05:47;42.00;;;28.40;;
3259;SDS011;22469;48.150;14.004;2023-02-16T18:08:15;37.57;;;28.43;;
3259;SDS011;22469;48.150;14.004;2023-02-16T18:10:43;45.10;;;31.27;;
3259;SDS011;22469;48.150;14.004;2023-02-16T18:13:17;44.03;;;30.03;;
3259;SDS011;22469;48.150;14.004;2023-02-16T18:15:46;46.27;;;31.20;;
3259;SDS011;22469;48.150;14.004;2023-02-16T18:18:15;43.87;;;31.50;;
3259;SDS011;22469;48.150;14.004;2023-02-16T18:20:45;175.50;;;69.00;;